Time;durP1;ratioP1;P1;durP2;ratioP2;P2;SDS_P1;SDS_P2;PMS_P1;PMS_P2;Temp;Humidity;BMP_temperature;BMP_pressure;BME280_temperature;BME280_humidity;BME280_pressure;Samples;Min_cycle;Max_cycle;Signal;HPM_P1;HPM_P2
2022/01/07 00:00:07;;;;;;;8.33;5.57;;;;;;;-2.07;100.00;95584.19;5055967;28;20193;-63
2022/01/07 00:02:32;;;;;;;8.57;6.03;;;;;;;-2.06;100.00;95591.13;5056023;28;20221;-55
2022/01/07 00:04:57;;;;;;;9.00;5.07;;;;;;;-2.05;100.00;95585.44;5057534;28;20243;-54
2022/01/07 00:07:23;;;;;;;9.07;4.90;;;;;;;-2.03;100.00;95579.78;5059787;28;20219;-53
2022/01/07 00:09:48;;;;;;;7.27;5.07;;;;;;;-2.03;100.00;95583.25;5059634;28;20205;-55
2022/01/07 00:12:17;;;;;;;6.03;4.53;;;;;;;-2.02;100.00;95587.50;5059332;28;20561;-55
2022/01/07 00:14:42;;;;;;;6.80;4.60;;;;;;;-2.04;100.00;95584.34;5059272;28;20212;-54
2022/01/07 00:17:07;;;;;;;7.67;4.40;;;;;;;-2.04;100.00;95583.56;5059076;28;20204;-62
2022/01/07 00:19:33;;;;;;;6.00;3.70;;;;;;;-2.10;100.00;95584.84;5059427;28;20322;-68
2022/01/07 00:21:58;;;;;;;4.90;3.80;;;;;;;-2.12;100.00;95597.75;5059425;28;20646;-67
2022/01/07 00:24:23;;;;;;;6.80;4.13;;;;;;;-2.15;100.00;95587.69;5059596;28;20200;-68
2022/01/07 00:26:48;;;;;;;8.40;4.17;;;;;;;-2.21;100.00;95583.59;5059067;28;20262;-67
2022/01/07 00:29:14;;;;;;;7.83;4.47;;;;;;;-2.21;100.00;95581.72;5059096;28;20209;-68
2022/01/07 00:31:39;;;;;;;8.00;4.53;;;;;;;-2.24;100.00;95584.22;5059285;28;20173;-67
2022/01/07 00:34:07;;;;;;;8.60;4.60;;;;;;;-2.28;100.00;95580.63;5059029;28;20205;-63
2022/01/07 00:36:33;;;;;;;7.83;4.90;;;;;;;-2.32;100.00;95577.00;5059717;28;20205;-67
2022/01/07 00:38:58;;;;;;;11.37;4.60;;;;;;;-2.35;100.00;95580.31;5076399;28;20205;-68
2022/01/07 00:41:23;;;;;;;7.27;4.33;;;;;;;-2.39;100.00;95576.72;5058728;28;20209;-68
2022/01/07 00:43:50;;;;;;;8.13;4.90;;;;;;;-2.41;100.00;95573.59;5058873;28;20225;-68
2022/01/07 00:46:17;;;;;;;9.73;5.40;;;;;;;-2.43;100.00;95570.44;5058769;28;20247;-68
2022/01/07 00:48:42;;;;;;;11.57;5.50;;;;;;;-2.45;100.00;95561.97;5058560;28;20228;-68
2022/01/07 00:51:09;;;;;;;6.80;4.10;;;;;;;-2.50;100.00;95567.44;5058794;28;20225;-68
2022/01/07 00:53:34;;;;;;;6.73;3.70;;;;;;;-2.60;100.00;95559.75;5059079;28;20219;-58
2022/01/07 00:55:59;;;;;;;5.40;3.70;;;;;;;-2.63;100.00;95555.06;5058352;28;20193;-62
2022/01/07 00:58:26;;;;;;;4.67;3.33;;;;;;;-2.65;100.00;95552.69;5058750;28;20254;-62
2022/01/07 01:00:51;;;;;;;6.70;4.00;;;;;;;-2.68;100.00;95552.53;5058394;28;20178;-62
2022/01/07 01:03:16;;;;;;;5.27;3.60;;;;;;;-2.72;100.00;95548.91;5058799;28;20204;-62
2022/01/07 01:05:44;;;;;;;7.67;3.30;;;;;;;-2.75;100.00;95546.88;5058655;28;20598;-63
2022/01/07 01:08:10;;;;;;;5.77;3.40;;;;;;;-2.80;100.00;95544.38;5058119;28;20257;-62
2022/01/07 01:10:35;;;;;;;5.20;3.20;;;;;;;-2.86;100.00;95545.63;5058549;28;20291;-62
2022/01/07 01:13:01;;;;;;;5.87;3.50;;;;;;;-2.86;100.00;95540.28;5058461;28;20197;-65
2022/01/07 01:15:27;;;;;;;4.87;3.10;;;;;;;-2.86;100.00;95545.63;5058646;28;20194;-64
2022/01/07 01:17:55;;;;;;;5.23;3.20;;;;;;;-2.84;100.00;95543.44;5057167;28;20198;-65
2022/01/07 01:20:20;;;;;;;4.53;3.20;;;;;;;-2.86;100.00;95540.28;5058216;28;20193;-64
2022/01/07 01:22:46;;;;;;;4.53;3.17;;;;;;;-2.89;100.00;95535.56;5058638;28;20193;-66
2022/01/07 01:25:12;;;;;;;4.87;3.17;;;;;;;-2.94;100.00;95533.06;5058342;28;20197;-65
2022/01/07 01:27:39;;;;;;;5.07;3.20;;;;;;;-2.96;100.00;95535.28;5058239;28;20213;-65
2022/01/07 01:30:08;;;;;;;6.13;3.27;;;;;;;-3.00;100.00;95532.44;5058048;28;20208;-58
2022/01/07 01:32:34;;;;;;;4.07;2.90;;;;;;;-3.01;100.00;95527.41;5058413;28;20201;-61
2022/01/07 01:34:59;;;;;;;6.77;3.03;;;;;;;-3.07;100.00;95534.00;5058370;28;20197;-61
2022/01/07 01:37:25;;;;;;;3.50;3.00;;;;;;;-3.09;100.00;95525.50;5057888;28;20243;-61
2022/01/07 01:39:50;;;;;;;4.10;2.90;;;;;;;-3.05;100.00;95526.47;5057784;28;20223;-62
2022/01/07 01:42:16;;;;;;;5.03;2.90;;;;;;;-3.09;100.00;95525.50;5058045;28;20197;-61
2022/01/07 01:44:41;;;;;;;5.40;3.13;;;;;;;-3.14;100.00;95523.00;5058079;28;20197;-61
2022/01/07 01:47:07;;;;;;;5.73;2.77;;;;;;;-3.18;100.00;95517.50;5057784;28;20246;-61
2022/01/07 01:49:33;;;;;;;3.53;2.67;;;;;;;-3.20;100.00;95508.25;5057698;28;20201;-53
2022/01/07 01:52:00;;;;;;;6.17;3.07;;;;;;;-3.24;100.00;95512.63;5057838;28;20268;-62
2022/01/07 01:54:25;;;;;;;4.83;2.93;;;;;;;-3.25;100.00;95505.72;5058273;28;20204;-62
2022/01/07 01:56:51;;;;;;;4.83;3.10;;;;;;;-3.25;100.00;95503.06;5057598;28;20201;-62
2022/01/07 01:59:27;;;;;;;3.90;2.80;;;;;;;-3.29;100.00;95500.22;5058113;28;20283;-62
2022/01/07 02:01:53;;;;;;;4.27;2.83;;;;;;;-3.31;100.00;95501.63;5057196;28;20196;-62
2022/01/07 02:04:19;;;;;;;5.50;2.93;;;;;;;-3.32;100.00;95505.41;5058039;28;20208;-62
2022/01/07 02:06:44;;;;;;;4.07;2.73;;;;;;;-3.37;100.00;95498.34;5057806;28;20208;-62
2022/01/07 02:09:09;;;;;;;5.83;2.93;;;;;;;-3.37;100.00;95498.34;5073949;28;20220;-55
2022/01/07 02:11:35;;;;;;;5.07;3.23;;;;;;;-3.37;100.00;95498.34;5057498;28;20204;-56
2022/01/07 02:14:01;;;;;;;5.27;3.03;;;;;;;-3.39;100.00;95494.41;5057526;28;20213;-55
2022/01/07 02:16:27;;;;;;;3.53;2.80;;;;;;;-3.43;100.00;95496.13;5057507;28;20205;-57
2022/01/07 02:18:53;;;;;;;6.40;3.20;;;;;;;-3.46;100.00;95501.00;5057362;28;20193;-54
2022/01/07 02:21:18;;;;;;;5.03;3.17;;;;;;;-3.47;100.00;95491.41;5057041;28;20204;-55
2022/01/07 02:23:43;;;;;;;8.50;4.40;;;;;;;-3.47;100.00;95487.19;5057407;28;20201;-56
2022/01/07 02:26:11;;;;;;;6.87;4.17;;;;;;;-3.48;100.00;95491.72;5057471;28;20193;-68
2022/01/07 02:28:37;;;;;;;6.60;3.80;;;;;;;-3.47;100.00;95487.19;5057136;28;20197;-62
2022/01/07 02:31:03;;;;;;;5.20;3.60;;;;;;;-3.46;100.00;95494.88;5056889;28;20193;-62
2022/01/07 02:33:28;;;;;;;4.53;2.83;;;;;;;-3.43;100.00;95493.47;5057339;28;20204;-62
2022/01/07 02:35:54;;;;;;;4.77;2.70;;;;;;;-3.43;100.00;95485.47;5057666;28;20208;-62
2022/01/07 02:38:19;;;;;;;7.23;3.00;;;;;;;-3.46;100.00;95495.66;5057003;28;20236;-62
2022/01/07 02:40:44;;;;;;;3.90;2.67;;;;;;;-3.47;100.00;95488.75;5057291;28;20321;-62
2022/01/07 02:43:10;;;;;;;4.20;2.67;;;;;;;-3.47;100.00;95483.41;5056969;28;20197;-65
2022/01/07 02:45:35;;;;;;;5.93;3.10;;;;;;;-3.52;100.00;95486.25;5056823;28;20201;-56
2022/01/07 02:48:03;;;;;;;6.57;2.90;;;;;;;-3.65;100.00;95484.50;5056773;28;20213;-56
2022/01/07 02:50:35;;;;;;;4.83;2.50;;;;;;;-3.64;100.00;95478.03;5056965;28;20197;-55
2022/01/07 02:53:02;;;;;;;5.27;3.10;;;;;;;-3.63;100.00;95492.97;5056892;28;20194;-54
2022/01/07 02:55:27;;;;;;;4.10;2.63;;;;;;;-3.63;100.00;95482.31;5056796;28;20204;-54
2022/01/07 02:57:53;;;;;;;4.43;2.70;;;;;;;-3.63;100.00;95479.63;5056762;28;20212;-55
2022/01/07 03:00:20;;;;;;;4.23;2.80;;;;;;;-3.62;100.00;95475.88;5056815;28;20216;-55
2022/01/07 03:02:47;;;;;;;6.77;2.73;;;;;;;-3.64;100.00;95467.38;5056992;28;20208;-68
2022/01/07 03:05:12;;;;;;;3.47;2.67;;;;;;;-3.68;100.00;95460.34;5073404;28;20204;-52
2022/01/07 03:07:39;;;;;;;5.20;2.63;;;;;;;-3.73;100.00;95463.94;5056659;28;20204;-55
2022/01/07 03:10:06;;;;;;;7.27;3.40;;;;;;;-3.77;100.00;95465.66;5056590;28;20204;-54
2022/01/07 03:12:32;;;;;;;8.83;5.47;;;;;;;-3.80;100.00;95474.25;5056375;28;20193;-54
2022/01/07 03:14:57;;;;;;;6.53;2.73;;;;;;;-3.80;100.00;95468.94;5056824;28;20200;-53
2022/01/07 03:17:23;;;;;;;5.07;2.87;;;;;;;-3.78;100.00;95466.72;5056547;28;20205;-55
2022/01/07 03:19:48;;;;;;;7.97;2.97;;;;;;;-3.79;100.00;95472.38;5056714;28;20204;-57
2022/01/07 03:22:13;;;;;;;5.40;2.80;;;;;;;-3.84;100.00;95473.31;5056415;28;20228;-67
2022/01/07 03:24:40;;;;;;;5.50;2.90;;;;;;;-3.86;100.00;95472.06;5056956;28;20201;-60
2022/01/07 03:27:06;;;;;;;3.90;2.73;;;;;;;-3.87;100.00;95460.59;5056337;28;20205;-62
2022/01/07 03:29:31;;;;;;;4.17;2.67;;;;;;;-3.92;100.00;95455.41;5073202;28;20197;-60
2022/01/07 03:31:56;;;;;;;5.00;2.60;;;;;;;-3.95;100.00;95461.38;5056182;28;20263;-60
2022/01/07 03:34:22;;;;;;;5.00;3.10;;;;;;;-3.96;100.00;95454.44;5056551;28;20200;-60
2022/01/07 03:36:47;;;;;;;5.63;3.10;;;;;;;-3.93;100.00;95453.81;5056409;28;20189;-60
2022/01/07 03:39:12;;;;;;;4.40;2.63;;;;;;;-3.90;100.00;95453.22;5055688;28;20193;-55
2022/01/07 03:41:38;;;;;;;4.60;2.73;;;;;;;-3.86;100.00;95451.50;5056043;28;20193;-62
2022/01/07 03:44:03;;;;;;;4.57;2.70;;;;;;;-3.88;100.00;95451.03;5056245;28;20205;-62
2022/01/07 03:46:29;;;;;;;5.43;2.10;;;;;;;-3.94;100.00;95446.94;5072368;28;20367;-62
2022/01/07 03:48:54;;;;;;;5.63;2.80;;;;;;;-4.00;100.00;95445.50;5055863;28;20193;-63
2022/01/07 03:51:19;;;;;;;5.63;2.87;;;;;;;-4.05;100.00;95440.31;5056192;28;20212;-62
2022/01/07 03:53:45;;;;;;;4.17;2.30;;;;;;;-4.10;100.00;95427.16;5055877;28;20221;-62
2022/01/07 03:56:16;;;;;;;3.00;2.40;;;;;;;-4.10;100.00;95443.13;5055949;28;20201;-63
2022/01/07 03:58:42;;;;;;;5.43;2.30;;;;;;;-4.12;100.00;95441.84;5073990;28;20256;-61
2022/01/07 04:01:07;;;;;;;7.40;2.70;;;;;;;-4.12;100.00;95434.66;5055820;28;20229;-58
2022/01/07 04:03:32;;;;;;;3.20;2.50;;;;;;;-4.09;100.00;95444.72;5055534;28;20204;-57
2022/01/07 04:05:58;;;;;;;5.73;2.60;;;;;;;-4.08;100.00;95446.25;5055856;28;20197;-56
2022/01/07 04:08:23;;;;;;;4.23;2.37;;;;;;;-4.11;100.00;95452.22;5055798;28;20220;-59
2022/01/07 04:10:48;;;;;;;3.60;2.50;;;;;;;-4.17;100.00;95450.81;5055774;28;20200;-60
2022/01/07 04:13:14;;;;;;;3.10;2.50;;;;;;;-4.17;100.00;95450.81;5055649;28;20279;-58
2022/01/07 04:15:39;;;;;;;7.63;2.83;;;;;;;-4.19;100.00;95454.88;5055850;28;20200;-62
2022/01/07 04:18:05;;;;;;;3.27;2.43;;;;;;;-4.26;100.00;95462.53;5055852;28;20200;-61
2022/01/07 04:20:33;;;;;;;3.60;2.27;;;;;;;-4.29;100.00;95455.91;5056161;28;20327;-61
2022/01/07 04:23:00;;;;;;;3.73;2.53;;;;;;;-4.34;100.00;95453.41;5055639;28;20334;-61
2022/01/07 04:25:26;;;;;;;5.93;2.43;;;;;;;-4.32;100.00;95461.88;5056107;28;20228;-60
2022/01/07 04:27:54;;;;;;;5.17;2.53;;;;;;;-4.33;100.00;95470.94;5055898;28;20286;-63
2022/01/07 04:30:21;;;;;;;7.43;3.17;;;;;;;-4.36;100.00;95458.25;5055312;28;20276;-61
2022/01/07 04:32:48;;;;;;;4.67;2.57;;;;;;;-4.36;100.00;95457.47;5055847;28;20190;-58
2022/01/07 04:35:15;;;;;;;4.00;2.10;;;;;;;-4.42;100.00;95462.16;5055270;28;20225;-57
2022/01/07 04:37:42;;;;;;;2.43;2.20;;;;;;;-4.45;100.00;95454.75;5055552;28;20205;-60
2022/01/07 04:40:10;;;;;;;4.13;2.30;;;;;;;-4.46;100.00;95450.53;5055604;28;20288;-60
2022/01/07 04:42:37;;;;;;;3.37;2.20;;;;;;;-4.50;100.00;95444.25;5072124;28;20227;-60
2022/01/07 04:45:05;;;;;;;3.77;2.03;;;;;;;-4.59;100.00;95451.41;5055297;28;20193;-60
2022/01/07 04:47:31;;;;;;;2.83;1.80;;;;;;;-4.61;100.00;95452.81;5055359;28;20204;-59
2022/01/07 04:49:57;;;;;;;3.63;2.10;;;;;;;-4.62;100.00;95457.34;5055404;28;20295;-59
2022/01/07 04:52:22;;;;;;;3.47;2.40;;;;;;;-4.62;100.00;95457.34;5057135;28;20228;-51
2022/01/07 04:54:48;;;;;;;5.77;3.60;;;;;;;-4.64;100.00;95462.19;5058800;28;20201;-58
2022/01/07 04:57:13;;;;;;;8.93;3.93;;;;;;;-4.66;100.00;95461.69;5075823;28;20177;-58
2022/01/07 04:59:39;;;;;;;7.00;3.20;;;;;;;-4.68;100.00;95463.91;5058845;28;20239;-58
2022/01/07 05:02:04;;;;;;;6.90;3.10;;;;;;;-4.70;100.00;95466.06;5059283;28;20251;-58
2022/01/07 05:04:30;;;;;;;6.50;3.20;;;;;;;-4.74;100.00;95459.78;5058968;28;20269;-58
2022/01/07 05:06:55;;;;;;;4.00;2.00;;;;;;;-4.77;100.00;95457.72;5058265;28;20241;-58
2022/01/07 05:09:21;;;;;;;3.17;2.40;;;;;;;-4.81;100.00;95451.44;5058325;28;20204;-62
2022/01/07 05:11:48;;;;;;;6.97;3.00;;;;;;;-4.81;100.00;95459.44;5058605;28;20240;-55
2022/01/07 05:14:14;;;;;;;4.97;2.90;;;;;;;-4.82;100.00;95462.41;5058279;28;20201;-65
2022/01/07 05:16:40;;;;;;;3.20;2.23;;;;;;;-4.80;100.00;95458.34;5058335;28;20260;-65
2022/01/07 05:19:05;;;;;;;3.17;2.23;;;;;;;-4.75;100.00;95463.53;5058269;28;20278;-65
2022/01/07 05:21:31;;;;;;;3.50;2.30;;;;;;;-4.75;100.00;95463.53;5076596;28;20247;-65
2022/01/07 05:23:56;;;;;;;4.47;2.27;;;;;;;-4.72;100.00;95468.25;5058344;28;20200;-66
2022/01/07 05:26:22;;;;;;;5.10;2.40;;;;;;;-4.74;100.00;95465.09;5058579;28;20201;-66
2022/01/07 05:28:47;;;;;;;3.47;2.10;;;;;;;-4.70;100.00;95460.75;5058362;28;20184;-62
2022/01/07 05:31:13;;;;;;;3.47;2.30;;;;;;;-4.68;100.00;95463.09;5058364;28;20197;-62
2022/01/07 05:33:38;;;;;;;4.40;2.60;;;;;;;-4.75;100.00;95462.75;5058353;28;20201;-62
2022/01/07 05:36:04;;;;;;;3.00;1.93;;;;;;;-4.77;100.00;95460.38;5058181;28;20207;-62
2022/01/07 05:38:29;;;;;;;3.10;2.17;;;;;;;-4.77;100.00;95462.28;5057940;28;20201;-62
2022/01/07 05:40:55;;;;;;;4.97;2.60;;;;;;;-4.79;100.00;95462.59;5057908;28;20282;-63
2022/01/07 05:43:20;;;;;;;4.00;2.30;;;;;;;-4.80;100.00;95461.03;5058186;28;20200;-61
2022/01/07 05:45:46;;;;;;;3.00;2.47;;;;;;;-4.80;100.00;95455.69;5057573;28;20204;-62
2022/01/07 05:48:14;;;;;;;3.97;2.87;;;;;;;-4.77;100.00;95460.38;5057653;28;20259;-61
2022/01/07 05:50:40;;;;;;;10.43;5.57;;;;;;;-4.75;100.00;95468.88;5057773;28;20202;-57
2022/01/07 05:53:06;;;;;;;7.37;4.37;;;;;;;-4.78;100.00;95474.00;5057847;28;20193;-58
2022/01/07 05:55:31;;;;;;;3.97;2.80;;;;;;;-4.76;100.00;95464.66;5057856;28;20201;-55
2022/01/07 05:57:57;;;;;;;7.07;4.03;;;;;;;-4.74;100.00;95470.44;5057553;28;20208;-56
2022/01/07 06:00:23;;;;;;;10.57;4.60;;;;;;;-4.74;100.00;95470.44;5058309;28;20213;-55
2022/01/07 06:02:48;;;;;;;5.60;3.83;;;;;;;-4.73;100.00;95471.22;5057672;28;20232;-53
2022/01/07 06:05:13;;;;;;;3.67;2.90;;;;;;;-4.74;100.00;95467.78;5057960;28;20197;-59
2022/01/07 06:07:39;;;;;;;5.27;2.90;;;;;;;-4.73;100.00;95466.69;5058027;28;20209;-67
2022/01/07 06:10:08;;;;;;;7.70;4.30;;;;;;;-4.76;100.00;95461.97;5057514;28;20208;-62
2022/01/07 06:12:33;;;;;;;8.00;4.03;;;;;;;-4.75;100.00;95458.22;5057450;28;20197;-62
2022/01/07 06:14:59;;;;;;;4.10;2.30;;;;;;;-4.72;100.00;95468.25;5057574;28;20193;-60
2022/01/07 06:17:25;;;;;;;4.20;2.50;;;;;;;-4.74;100.00;95459.78;5057323;28;20209;-59
2022/01/07 06:19:51;;;;;;;3.90;2.37;;;;;;;-4.71;100.00;95463.72;5057369;28;20197;-60
2022/01/07 06:22:18;;;;;;;4.90;2.40;;;;;;;-4.66;100.00;95472.34;5057113;28;20204;-61
2022/01/07 06:24:44;;;;;;;5.07;2.40;;;;;;;-4.64;100.00;95456.88;5057305;28;20199;-57
2022/01/07 06:27:10;;;;;;;3.57;2.20;;;;;;;-4.62;100.00;95457.34;5057395;28;20208;-62
2022/01/07 06:29:35;;;;;;;3.63;2.13;;;;;;;-4.59;100.00;95461.28;5057143;28;20200;-61
2022/01/07 06:32:01;;;;;;;3.47;2.10;;;;;;;-4.58;100.00;95458.31;5057986;28;20193;-60
2022/01/07 06:34:26;;;;;;;3.67;2.17;;;;;;;-4.57;100.00;95465.22;5056820;28;20229;-60
2022/01/07 06:36:52;;;;;;;3.37;1.97;;;;;;;-4.56;100.00;95466.78;5057087;28;20237;-62
2022/01/07 06:39:22;;;;;;;2.80;2.20;;;;;;;-4.55;100.00;95462.25;5057092;28;20206;-60
2022/01/07 06:41:48;;;;;;;4.43;2.40;;;;;;;-4.54;100.00;95467.25;5057119;28;20284;-60
2022/01/07 06:44:14;;;;;;;4.00;2.10;;;;;;;-4.51;100.00;95466.63;5057483;28;20201;-58
2022/01/07 06:46:40;;;;;;;3.70;1.90;;;;;;;-4.50;100.00;95465.56;5056535;28;20260;-61
2022/01/07 06:49:05;;;;;;;4.90;2.23;;;;;;;-4.45;100.00;95473.41;5056805;28;20205;-61
2022/01/07 06:51:31;;;;;;;5.37;2.80;;;;;;;-4.42;100.00;95467.47;5056976;28;20201;-62
2022/01/07 06:53:57;;;;;;;4.53;2.27;;;;;;;-4.39;100.00;95471.41;5057039;28;20231;-62
2022/01/07 06:56:23;;;;;;;5.40;2.30;;;;;;;-4.36;100.00;95471.59;5056594;28;20204;-64
2022/01/07 06:58:48;;;;;;;2.90;2.07;;;;;;;-4.35;100.00;95467.81;5057375;28;20272;-62
2022/01/07 07:01:13;;;;;;;6.23;2.87;;;;;;;-4.32;100.00;95464.53;5057093;28;20205;-54
2022/01/07 07:03:40;;;;;;;3.37;2.10;;;;;;;-4.26;100.00;95459.88;5057398;28;20200;-66
2022/01/07 07:06:06;;;;;;;2.90;2.00;;;;;;;-4.20;100.00;95458.59;5056922;28;20200;-66
2022/01/07 07:08:31;;;;;;;3.93;2.20;;;;;;;-4.16;100.00;95467.56;5056821;28;20257;-66
2022/01/07 07:10:57;;;;;;;3.73;2.30;;;;;;;-4.04;100.00;95468.53;5056425;28;20192;-66
2022/01/07 07:13:22;;;;;;;7.00;3.03;;;;;;;-3.49;100.00;95464.25;5056554;28;20278;-66
2022/01/07 07:15:47;;;;;;;5.10;2.80;;;;;;;-2.72;100.00;95460.75;5055495;28;20204;-66
2022/01/07 07:18:14;;;;;;;5.90;3.40;;;;;;;-2.09;100.00;95458.03;5056631;28;20331;-62
2022/01/07 07:20:39;;;;;;;6.70;4.33;;;;;;;-1.44;100.00;95450.28;5057343;28;20193;-58
2022/01/07 07:23:05;;;;;;;6.67;2.57;;;;;;;-1.10;100.00;95460.72;5056550;28;20189;-65
2022/01/07 07:25:30;;;;;;;4.33;2.27;;;;;;;-1.09;100.00;95460.38;5056495;28;20208;-65
2022/01/07 07:27:55;;;;;;;3.87;1.93;;;;;;;-0.25;100.00;95462.59;5056010;28;20225;-65
2022/01/07 07:30:21;;;;;;;4.23;2.20;;;;;;;0.61;100.00;95471.09;5056832;28;20201;-65
2022/01/07 07:32:48;;;;;;;3.37;2.10;;;;;;;1.48;100.00;95475.56;5056497;28;20206;-65
2022/01/07 07:37:44;;;;;;;1.87;1.70;;;;;;;1.52;100.00;95494.47;5073796;28;20297;-68
2022/01/07 07:40:10;;;;;;;5.00;3.50;;;;;;;1.79;100.00;95486.38;5056192;28;20227;-65
2022/01/07 07:42:36;;;;;;;2.03;1.83;;;;;;;1.93;100.00;95485.97;5056012;28;20201;-69
2022/01/07 07:45:01;;;;;;;3.77;1.90;;;;;;;2.59;100.00;95486.84;5055976;28;20197;-68
2022/01/07 07:47:28;;;;;;;5.00;3.23;;;;;;;3.16;100.00;95485.03;5056567;28;20212;-67
2022/01/07 07:49:53;;;;;;;5.43;2.67;;;;;;;3.38;100.00;95478.94;5055945;28;20195;-66
2022/01/07 07:52:19;;;;;;;6.10;3.70;;;;;;;3.57;100.00;95477.38;5055866;28;20219;-70
2022/01/07 07:54:44;;;;;;;2.47;2.20;;;;;;;3.92;100.00;95480.75;5056182;28;20230;-61
2022/01/07 07:57:09;;;;;;;3.43;2.17;;;;;;;4.16;100.00;95481.19;5056081;28;20212;-65
2022/01/07 07:59:35;;;;;;;3.13;2.30;;;;;;;4.10;100.00;95492.66;5055880;28;20224;-57
2022/01/07 08:02:02;;;;;;;6.20;2.40;;;;;;;4.11;100.00;95480.72;5056223;28;20206;-57
2022/01/07 08:04:27;;;;;;;6.57;2.90;;;;;;;3.98;100.00;95482.00;5055834;28;20215;-56
2022/01/07 08:06:53;;;;;;;5.03;2.67;;;;;;;4.00;100.00;95491.31;5055739;28;20215;-57
2022/01/07 08:09:21;;;;;;;5.77;2.73;;;;;;;4.06;100.00;95495.28;5055441;28;20204;-56
2022/01/07 08:11:57;;;;;;;4.77;2.77;;;;;;;4.28;100.00;95485.63;5073282;28;20217;-56
2022/01/07 08:17:07;;;;;;;5.43;2.50;;;;;;;3.07;100.00;95500.63;5073935;28;20209;-62
2022/01/07 08:19:34;;;;;;;2.70;2.17;;;;;;;2.30;100.00;95501.53;5055890;28;20209;-62
2022/01/07 08:22:00;;;;;;;5.00;2.63;;;;;;;1.73;100.00;95498.53;5055775;28;20201;-62
2022/01/07 08:24:25;;;;;;;5.33;2.70;;;;;;;1.33;100.00;95489.75;5056041;28;20206;-62
2022/01/07 08:26:50;;;;;;;8.67;5.23;;;;;;;1.01;100.00;95490.72;5058228;28;20204;-61
2022/01/07 08:29:16;;;;;;;9.10;5.13;;;;;;;0.69;100.00;95485.53;5058759;28;20215;-65
2022/01/07 08:36:52;;;;;;;3.53;2.30;;;;;;;0.34;100.00;95479.84;5077252;28;20208;-60
2022/01/07 08:39:18;;;;;;;3.23;2.40;;;;;;;0.45;100.00;95480.19;5058924;28;20196;-58
2022/01/07 08:41:43;;;;;;;6.37;2.37;;;;;;;0.38;100.00;95479.94;5058932;28;20189;-58
2022/01/07 08:44:10;;;;;;;2.50;1.90;;;;;;;0.56;100.00;95482.06;5059259;28;20330;-58
2022/01/07 08:46:36;;;;;;;3.93;2.27;;;;;;;0.60;100.00;95476.81;5058790;28;20292;-57
2022/01/07 08:49:04;;;;;;;3.37;2.23;;;;;;;0.68;100.00;95474.00;5059010;28;20181;-58
2022/01/07 08:51:29;;;;;;;3.07;2.00;;;;;;;0.70;100.00;95479.81;5059130;28;20268;-57
2022/01/07 08:53:58;;;;;;;4.03;2.50;;;;;;;0.85;100.00;95476.44;5058888;28;20252;-57
2022/01/07 08:56:24;;;;;;;3.70;2.43;;;;;;;1.04;100.00;95482.00;5076260;28;20197;-57
2022/01/07 08:58:51;;;;;;;3.20;2.50;;;;;;;1.37;100.00;95479.84;5058625;28;20196;-58
2022/01/07 09:01:17;;;;;;;3.10;2.40;;;;;;;1.65;100.00;95469.88;5059033;28;20225;-58
2022/01/07 09:03:42;;;;;;;4.87;2.30;;;;;;;1.89;100.00;95480.50;5058418;28;20189;-58
2022/01/07 09:06:08;;;;;;;4.47;2.40;;;;;;;2.15;100.00;95480.75;5058490;28;20197;-58
2022/01/07 09:08:33;;;;;;;2.33;1.83;;;;;;;2.29;100.00;95481.13;5057869;28;20212;-60
2022/01/07 09:10:59;;;;;;;3.47;2.13;;;;;;;2.37;100.00;95477.47;5058006;28;20193;-57
2022/01/07 09:13:25;;;;;;;3.77;2.57;;;;;;;2.84;100.00;95480.09;5058347;28;20251;-56
2022/01/07 09:15:50;;;;;;;4.13;2.10;;;;;;;3.17;100.00;95475.81;5058466;28;20205;-57
2022/01/07 09:18:15;;;;;;;2.73;1.97;;;;;;;3.56;100.00;95481.22;5058538;28;20548;-57
2022/01/07 09:20:44;;;;;;;3.00;2.10;;;;;;;3.89;100.00;95473.38;5058426;28;20209;-56
2022/01/07 09:23:10;;;;;;;3.23;2.23;;;;;;;3.99;100.00;95476.25;5058453;28;20287;-58
2022/01/07 09:25:36;;;;;;;3.73;1.90;;;;;;;3.70;100.00;95470.69;5057891;28;20208;-57
2022/01/07 09:28:02;;;;;;;4.10;2.10;;;;;;;3.60;100.00;95468.59;5057905;28;20214;-64
2022/01/07 09:30:27;;;;;;;4.50;3.37;;;;;;;3.47;100.00;95467.94;5057719;28;20199;-57
2022/01/07 09:32:53;;;;;;;4.17;2.50;;;;;;;3.19;100.00;95464.66;5057838;28;20203;-57
2022/01/07 09:35:19;;;;;;;5.47;2.77;;;;;;;3.07;100.00;95465.56;5057791;28;20289;-57
2022/01/07 09:37:44;;;;;;;3.70;2.20;;;;;;;3.18;100.00;95455.78;5032533;28;20237;-58
2022/01/07 09:40:11;;;;;;;2.60;2.23;;;;;;;3.10;100.00;95454.06;5016717;28;20303;-59
2022/01/07 09:42:37;;;;;;;2.27;2.07;;;;;;;2.76;100.00;95454.88;5017469;28;20256;-58
2022/01/07 09:45:03;;;;;;;6.90;1.97;;;;;;;2.82;100.00;95456.19;5017295;28;20223;-61
2022/01/07 09:47:28;;;;;;;3.50;1.93;;;;;;;2.90;100.00;95455.19;5016889;28;20277;-58
2022/01/07 09:49:53;;;;;;;3.67;1.90;;;;;;;2.92;100.00;95447.53;5017573;28;20179;-58
2022/01/07 09:52:19;;;;;;;3.80;1.90;;;;;;;3.03;100.00;95442.38;5017098;28;20215;-57
2022/01/07 09:54:47;;;;;;;2.70;1.93;;;;;;;3.14;100.00;95438.75;5016912;28;20210;-57
2022/01/07 09:57:12;;;;;;;3.43;2.20;;;;;;;3.30;100.00;95436.78;5016757;28;20217;-57
2022/01/07 09:59:39;;;;;;;6.43;2.20;;;;;;;3.02;100.00;95441.59;5016810;28;20195;-57
2022/01/07 10:02:09;;;;;;;2.53;1.93;;;;;;;2.99;100.00;95442.28;5016817;28;20270;-57
2022/01/07 10:04:35;;;;;;;3.23;1.87;;;;;;;3.12;100.00;95443.72;5016965;28;20303;-60
2022/01/07 10:07:23;;;;;;;3.73;2.10;;;;;;;3.62;100.00;95431.19;5016808;28;20213;-54
2022/01/07 10:09:58;;;;;;;5.73;1.73;;;;;;;3.80;100.00;95426.91;5055687;28;20211;-53
2022/01/07 10:12:25;;;;;;;3.07;1.83;;;;;;;4.03;100.00;95431.19;5057832;28;20181;-56
2022/01/07 10:15:16;;;;;;;3.27;1.90;;;;;;;4.03;100.00;95424.97;5057980;28;20248;-54
2022/01/07 10:18:12;;;;;;;2.50;1.97;;;;;;;4.24;100.00;95425.34;5057545;28;20209;-54
2022/01/07 10:20:40;;;;;;;6.60;4.20;;;;;;;4.41;100.00;95430.25;5056875;28;20214;-52
2022/01/07 10:23:23;;;;;;;3.33;1.80;;;;;;;4.40;100.00;95424.06;5057401;28;20211;-60
2022/01/07 10:25:53;;;;;;;3.40;1.70;;;;;;;4.32;100.00;95413.50;5073949;28;20191;-61
2022/01/07 10:28:20;;;;;;;4.37;1.90;;;;;;;3.87;100.00;95421.63;5057466;28;20249;-59
2022/01/07 10:30:54;;;;;;;2.80;1.60;;;;;;;3.64;100.00;95413.50;5056999;28;20344;-61
2022/01/07 10:33:26;;;;;;;5.30;2.10;;;;;;;3.51;100.00;95414.81;5056869;28;20229;-63
2022/01/07 10:36:06;;;;;;;2.20;1.90;;;;;;;3.44;100.00;95410.06;5073928;28;20243;-62
2022/01/07 10:38:33;;;;;;;2.17;1.70;;;;;;;3.19;100.00;95403.41;5057150;28;20201;-59
2022/01/07 10:40:59;;;;;;;2.23;1.83;;;;;;;3.09;100.00;95398.59;5057289;28;20221;-58
2022/01/07 10:43:30;;;;;;;3.47;2.07;;;;;;;3.09;100.00;95397.78;5057155;28;20292;-51
2022/01/07 10:45:57;;;;;;;5.17;1.93;;;;;;;2.87;100.00;95395.78;5057445;28;20202;-52
2022/01/07 10:48:35;;;;;;;3.90;1.83;;;;;;;2.79;100.00;95394.88;5056132;28;20211;-51
2022/01/07 10:51:05;;;;;;;4.57;1.90;;;;;;;2.86;100.00;95381.56;5055613;28;20201;-52
2022/01/07 10:53:31;;;;;;;2.53;1.63;;;;;;;2.66;100.00;95381.91;5073171;28;20200;-54
2022/01/07 10:56:12;;;;;;;4.47;2.10;;;;;;;2.55;100.00;95373.56;5057015;28;20201;-51
2022/01/07 10:58:43;;;;;;;2.73;2.10;;;;;;;2.45;100.00;95368.72;5056663;28;20201;-56
2022/01/07 11:01:25;;;;;;;4.97;2.23;;;;;;;2.32;100.00;95364.59;5057032;28;20250;-58
2022/01/07 11:03:59;;;;;;;4.43;2.10;;;;;;;2.23;100.00;95361.28;5056871;28;20208;-61
2022/01/07 11:06:25;;;;;;;4.47;2.27;;;;;;;2.26;100.00;95360.59;5057232;28;20275;-61
2022/01/07 11:08:54;;;;;;;2.67;1.70;;;;;;;2.28;100.00;95363.75;5056275;28;20197;-63
2022/01/07 11:11:21;;;;;;;2.57;1.73;;;;;;;2.15;100.00;95358.81;5056812;28;20209;-61
2022/01/07 11:13:47;;;;;;;3.00;1.93;;;;;;;2.08;100.00;95359.41;5056385;28;20193;-61
2022/01/07 11:16:13;;;;;;;4.33;2.10;;;;;;;2.11;100.00;95358.72;5072777;28;20228;-62
2022/01/07 11:18:40;;;;;;;3.20;2.00;;;;;;;2.02;100.00;95358.13;5056292;28;20232;-58
2022/01/07 11:21:08;;;;;;;3.27;1.80;;;;;;;2.03;100.00;95357.00;5056234;28;20200;-58
2022/01/07 11:23:37;;;;;;;3.33;1.87;;;;;;;2.04;100.00;95353.16;5056307;28;20212;-59
2022/01/07 11:26:08;;;;;;;3.10;2.00;;;;;;;2.20;100.00;95340.47;5056187;28;20217;-57
2022/01/07 11:28:34;;;;;;;1.97;1.80;;;;;;;2.38;100.00;95343.56;5056729;28;20205;-57
2022/01/07 11:31:03;;;;;;;4.07;1.93;;;;;;;2.56;100.00;95334.72;5056262;28;20209;-58
2022/01/07 11:33:30;;;;;;;3.63;2.43;;;;;;;2.77;100.00;95332.44;5055828;28;20188;-58